地図

経路データ

SID SEASON NUMBER BASIN SUBBASIN NAME ISO_TIME NATURE LAT LON WMO_WIND WMO_PRES WMO_AGENCY TRACK_TYPE DIST2LAND LANDFALL IFLAG USA_AGENCY USA_ATCF_ID USA_LAT USA_LON USA_RECORD USA_STATUS USA_WIND USA_PRES USA_SSHS USA_R34_NE USA_R34_SE USA_R34_SW USA_R34_NW USA_R50_NE USA_R50_SE USA_R50_SW USA_R50_NW USA_R64_NE USA_R64_SE USA_R64_SW USA_R64_NW USA_POCI USA_ROCI USA_RMW USA_EYE TOKYO_LAT TOKYO_LON TOKYO_GRADE TOKYO_WIND TOKYO_PRES TOKYO_R50_DIR TOKYO_R50_LONG TOKYO_R50_SHORT TOKYO_R30_DIR TOKYO_R30_LONG TOKYO_R30_SHORT TOKYO_LAND CMA_LAT CMA_LON CMA_CAT CMA_WIND CMA_PRES HKO_LAT HKO_LON HKO_CAT HKO_WIND HKO_PRES NEWDELHI_LAT NEWDELHI_LON NEWDELHI_GRADE NEWDELHI_WIND NEWDELHI_PRES NEWDELHI_CI NEWDELHI_DP NEWDELHI_POCI REUNION_LAT REUNION_LON REUNION_TYPE REUNION_WIND REUNION_PRES REUNION_TNUM REUNION_CI REUNION_RMW REUNION_R34_NE REUNION_R34_SE REUNION_R34_SW REUNION_R34_NW REUNION_R50_NE REUNION_R50_SE REUNION_R50_SW REUNION_R50_NW REUNION_R64_NE REUNION_R64_SE REUNION_R64_SW REUNION_R64_NW BOM_LAT BOM_LON BOM_TYPE BOM_WIND BOM_PRES BOM_TNUM BOM_CI BOM_RMW BOM_R34_NE BOM_R34_SE BOM_R34_SW BOM_R34_NW BOM_R50_NE BOM_R50_SE BOM_R50_SW BOM_R50_NW BOM_R64_NE BOM_R64_SE BOM_R64_SW BOM_R64_NW BOM_ROCI BOM_POCI BOM_EYE BOM_POS_METHOD BOM_PRES_METHOD NADI_LAT NADI_LON NADI_CAT NADI_WIND NADI_PRES WELLINGTON_LAT WELLINGTON_LON WELLINGTON_WIND WELLINGTON_PRES DS824_LAT DS824_LON DS824_STAGE DS824_WIND DS824_PRES TD9636_LAT TD9636_LON TD9636_STAGE TD9636_WIND TD9636_PRES TD9635_LAT TD9635_LON TD9635_WIND TD9635_PRES TD9635_ROCI NEUMANN_LAT NEUMANN_LON NEUMANN_CLASS NEUMANN_WIND NEUMANN_PRES MLC_LAT MLC_LON MLC_CLASS MLC_WIND MLC_PRES USA_GUST BOM_GUST BOM_GUST_PER REUNION_GUST REUNION_GUST_PER USA_SEAHGT USA_SEARAD_NE USA_SEARAD_SE USA_SEARAD_SW USA_SEARAD_NW STORM_SPEED STORM_DIR
1907014S16124 1907 3 SI WA NOT_NAMED 1907-01-14 00:00:00 NR -15.6000 123.900 main 53 30 __________O___ -1 -15.6000 123.900 7 20 230
1907014S16124 1907 3 SI WA NOT_NAMED 1907-01-14 03:00:00 NR -16.2437 123.103 main 35 10 __________P___ -1 -16.2437 123.103 7 20 230
1907014S16124 1907 3 SI WA NOT_NAMED 1907-01-14 06:00:00 NR -16.8788 122.292 main 21 15 __________P___ -1 -16.8788 122.292 7 20 231
1907014S16124 1907 3 SI WA NOT_NAMED 1907-01-14 09:00:00 NR -17.4995 121.461 main 64 64 __________P___ -1 -17.4995 121.461 7 20 233
1907014S16124 1907 3 SI WA NOT_NAMED 1907-01-14 12:00:00 NR -18.1000 120.600 main 128 128 __________O___ -1 -18.1000 120.600 7 20 235
1907014S16124 1907 3 SI WA NOT_NAMED 1907-01-14 15:00:00 NR -18.6747 119.712 main 144 102 __________P___ -1 -18.6747 119.712 7 20 236
1907014S16124 1907 3 SI WA NOT_NAMED 1907-01-14 18:00:00 NR -19.2188 118.844 main 105 78 __________P___ -1 -19.2188 118.844 7 19 236
1907014S16124 1907 3 SI WA NOT_NAMED 1907-01-14 21:00:00 NR -19.7282 118.053 main 78 53 __________P___ -1 -19.7282 118.053 7 17 234
1907014S16124 1907 3 SI WA NOT_NAMED 1907-01-15 00:00:00 NR -20.2000 117.400 main 59 11 __________O___ -1 -20.2000 117.400 7 15 236
1907014S16124 1907 3 SI WA NOT_NAMED 1907-01-15 03:00:00 NR -20.5438 116.764 main 11 0 __________P___ -1 -20.5438 116.764 7 12 237
1907014S16124 1907 3 SI WA NOT_NAMED 1907-01-15 06:00:00 NR -20.8681 116.297 main 0 0 __________P___ -1 -20.8681 116.297 7 10 222
1907014S16124 1907 3 SI WA NOT_NAMED 1907-01-15 09:00:00 NR -21.2584 116.081 main 0 0 __________P___ -1 -21.2584 116.081 7 9 186
1907014S16124 1907 3 SI WA NOT_NAMED 1907-01-15 12:00:00 NR -21.8000 116.200 main 0 0 __________O___ -1 -21.8000 116.200 7 16 156
1907014S16124 1907 3 SI WA NOT_NAMED 1907-01-15 15:00:00 NR -22.6808 116.771 main 0 0 __________P___ -1 -22.6808 116.771 7 23 144
1907014S16124 1907 3 SI WA NOT_NAMED 1907-01-15 18:00:00 NR -23.6990 117.674 main 0 0 __________P___ -1 -23.6990 117.674 7 27 138
1907014S16124 1907 3 SI WA NOT_NAMED 1907-01-15 21:00:00 NR -24.7167 118.743 main 0 0 __________P___ -1 -24.7167 118.743 7 27 135
1907014S16124 1907 3 SI WA NOT_NAMED 1907-01-16 00:00:00 NR -25.6000 119.800 main 0 0 __________O___ -1 -25.6000 119.800 7 22 131
1907014S16124 1907 3 SI WA NOT_NAMED 1907-01-16 03:00:00 NR -26.1818 120.602 main 0 0 __________P___ -1 -26.1818 120.602 7 17 126
1907014S16124 1907 3 SI WA NOT_NAMED 1907-01-16 06:00:00 NR -26.6198 121.348 main 0 0 __________P___ -1 -26.6198 121.348 7 15 122
1907014S16124 1907 3 SI WA NOT_NAMED 1907-01-16 09:00:00 NR -26.9730 122.044 main 0 0 __________P___ -1 -26.9730 122.044 7 14 119
1907014S16124 1907 3 SI WA NOT_NAMED 1907-01-16 12:00:00 NR -27.3000 122.700 main 0 0 __________O___ -1 -27.3000 122.700 7 13 122
1907014S16124 1907 3 SI WA NOT_NAMED 1907-01-16 15:00:00 NR -27.6739 123.291 main 0 0 __________P___ -1 -27.6739 123.291 7 13 126
1907014S16124 1907 3 SI WA NOT_NAMED 1907-01-16 18:00:00 NR -28.0377 123.854 main 0 0 __________P___ -1 -28.0377 123.854 7 13 126
1907014S16124 1907 3 SI WA NOT_NAMED 1907-01-16 21:00:00 NR -28.4079 124.439 main 0 0 __________P___ -1 -28.4079 124.439 7 13 125
1907014S16124 1907 3 SI WA NOT_NAMED 1907-01-17 00:00:00 NR -28.8000 125.100 main 0 0 __________O___ -1 -28.8000 125.100 7 16 122
1907014S16124 1907 3 SI WA NOT_NAMED 1907-01-17 03:00:00 NR -29.2473 125.956 main 0 0 __________P___ -1 -29.2473 125.956 7 18 120
1907014S16124 1907 3 SI WA NOT_NAMED 1907-01-17 06:00:00 NR -29.7113 126.889 main 0 0 __________P___ -1 -29.7113 126.889 7 19 120
1907014S16124 1907 3 SI WA NOT_NAMED 1907-01-17 09:00:00 NR -30.1692 127.828 main 0 0 __________P___ -1 -30.1692 127.828 7 18 120
1907014S16124 1907 3 SI WA NOT_NAMED 1907-01-17 12:00:00 NR -30.6000 128.700 main 0 0 __________O___ -1 -30.6000 128.700 7 16 120
1907014S16124 1907 3 SI WA NOT_NAMED 1907-01-17 15:00:00 NR -30.9897 129.449 main 0 0 __________P___ -1 -30.9897 129.449 7 14 122
1907014S16124 1907 3 SI WA NOT_NAMED 1907-01-17 18:00:00 NR -31.3455 130.091 main 0 0 __________P___ -1 -31.3455 130.091 7 12 124
1907014S16124 1907 3 SI WA NOT_NAMED 1907-01-17 21:00:00 NR -31.6788 130.662 main 11 11 __________P___ -1 -31.6788 130.662 7 11 125
1907014S16124 1907 3 SI WA NOT_NAMED 1907-01-18 00:00:00 NR -32.0000 131.200 main 52 __________O___ -1 -32.0000 131.200 7 11 125

IBTrACS Databaseについて

本データベースは、米国NOAAが公開する1842年以降の世界の熱帯低気圧のベストトラックデータアーカイブInternational Best Track Archive for Climate Stewardship (IBTrACS)を、ウェブで閲覧しやすい形式に変換したものです。

最終更新日:2021-11-26